createdAt,value
2022-10-13T00:00:01.979Z,491.00
2022-10-13T00:00:30.998Z,492.00
2022-10-13T00:01:01.065Z,492.00
2022-10-13T00:01:31.121Z,492.00
2022-10-13T00:02:01.158Z,492.00
2022-10-13T00:02:31.184Z,491.00
2022-10-13T00:03:01.224Z,490.00
2022-10-13T00:03:31.257Z,492.00
2022-10-13T00:04:01.285Z,493.00
2022-10-13T00:04:31.319Z,491.00
2022-10-13T00:05:01.367Z,492.00
2022-10-13T00:05:31.391Z,488.00
2022-10-13T00:06:01.418Z,489.00
2022-10-13T00:06:31.449Z,489.00
2022-10-13T00:07:01.473Z,489.00
2022-10-13T00:07:31.499Z,490.00
2022-10-13T00:08:01.529Z,490.00
2022-10-13T00:08:31.561Z,491.00
2022-10-13T00:09:01.596Z,492.00
2022-10-13T00:09:31.623Z,494.00
2022-10-13T00:10:01.650Z,492.00
2022-10-13T00:10:31.682Z,491.00
2022-10-13T00:11:01.704Z,490.00
2022-10-13T00:11:31.760Z,490.00
2022-10-13T00:12:01.761Z,490.00
2022-10-13T00:12:31.791Z,489.00
2022-10-13T00:13:01.813Z,489.00
2022-10-13T00:13:31.854Z,488.00
2022-10-13T00:14:01.904Z,490.00
2022-10-13T00:14:31.918Z,489.00
2022-10-13T00:15:01.943Z,489.00
2022-10-13T00:15:32.021Z,490.00
2022-10-13T00:16:02.028Z,492.00
2022-10-13T00:16:32.058Z,493.00
2022-10-13T00:17:02.078Z,493.00
2022-10-13T00:17:32.112Z,492.00
2022-10-13T00:18:02.135Z,490.00
2022-10-13T00:18:32.169Z,490.00
2022-10-13T00:19:02.200Z,489.00
2022-10-13T00:19:32.229Z,489.00
2022-10-13T00:20:02.254Z,488.00
2022-10-13T00:20:32.292Z,488.00
2022-10-13T00:21:02.320Z,487.00
2022-10-13T00:21:32.348Z,487.00
2022-10-13T00:22:02.373Z,489.00
2022-10-13T00:22:32.425Z,487.00
2022-10-13T00:23:02.447Z,487.00
2022-10-13T00:23:32.475Z,485.00
2022-10-13T00:24:02.512Z,486.00
2022-10-13T00:24:32.564Z,488.00
2022-10-13T00:25:02.581Z,489.00
2022-10-13T00:25:32.628Z,490.00
2022-10-13T00:26:02.654Z,490.00
2022-10-13T00:26:32.678Z,491.00
2022-10-13T00:27:02.723Z,491.00
2022-10-13T00:27:32.727Z,489.00
2022-10-13T00:28:02.757Z,488.00
2022-10-13T00:28:32.835Z,488.00
2022-10-13T00:29:02.944Z,488.00
2022-10-13T00:29:32.882Z,487.00
2022-10-13T00:30:02.925Z,485.00
2022-10-13T00:30:32.952Z,488.00
2022-10-13T00:31:02.987Z,490.00
2022-10-13T00:31:33.036Z,489.00
2022-10-13T00:32:03.060Z,490.00
2022-10-13T00:32:33.109Z,490.00
2022-10-13T00:33:03.134Z,488.00
2022-10-13T00:33:33.163Z,488.00
2022-10-13T00:34:03.214Z,488.00
2022-10-13T00:34:33.322Z,488.00
2022-10-13T00:35:03.318Z,487.00
2022-10-13T00:35:33.349Z,485.00
2022-10-13T00:36:03.413Z,483.00
2022-10-13T00:36:33.447Z,480.00
2022-10-13T00:37:03.469Z,480.00
2022-10-13T00:37:33.498Z,479.00
2022-10-13T00:38:03.542Z,480.00
2022-10-13T00:38:33.561Z,481.00
2022-10-13T00:39:03.581Z,481.00
2022-10-13T00:39:33.614Z,476.00
2022-10-13T00:40:03.622Z,477.00
2022-10-13T00:40:33.741Z,478.00
2022-10-13T00:41:03.732Z,475.00
2022-10-13T00:41:33.856Z,472.00
2022-10-13T00:42:03.841Z,474.00
2022-10-13T00:42:33.974Z,475.00
2022-10-13T00:43:04.067Z,476.00
2022-10-13T00:43:34.191Z,479.00
2022-10-13T00:44:04.307Z,480.00
2022-10-13T00:44:34.410Z,480.00
2022-10-13T00:45:04.535Z,479.00
2022-10-13T00:45:34.522Z,481.00
2022-10-13T00:46:04.642Z,482.00
2022-10-13T00:46:34.753Z,482.00
2022-10-13T00:47:04.765Z,482.00
2022-10-13T00:47:34.868Z,481.00
2022-10-13T00:48:04.996Z,482.00
2022-10-13T00:48:35.095Z,482.00
2022-10-13T00:49:05.201Z,482.00
2022-10-13T00:49:35.325Z,482.00
2022-10-13T00:50:05.402Z,480.00
2022-10-13T00:50:35.431Z,478.00
2022-10-13T00:51:05.462Z,479.00
2022-10-13T00:51:35.475Z,476.00
2022-10-13T00:52:05.509Z,479.00
2022-10-13T00:52:35.539Z,480.00
2022-10-13T00:53:05.588Z,479.00
2022-10-13T00:53:35.617Z,478.00
2022-10-13T00:54:05.638Z,478.00
2022-10-13T00:54:35.666Z,479.00
2022-10-13T00:55:05.867Z,478.00
2022-10-13T00:55:35.776Z,479.00
2022-10-13T00:56:05.804Z,480.00
2022-10-13T00:56:35.816Z,479.00
2022-10-13T00:57:05.851Z,478.00
2022-10-13T00:57:35.889Z,476.00
2022-10-13T00:58:05.912Z,475.00
2022-10-13T00:58:35.936Z,473.00
2022-10-13T00:59:05.967Z,473.00
2022-10-13T00:59:35.991Z,472.00
2022-10-13T01:00:06.177Z,473.00
2022-10-13T01:00:36.122Z,475.00
2022-10-13T01:01:06.269Z,473.00
2022-10-13T01:01:36.272Z,471.00
2022-10-13T01:02:06.304Z,470.00
2022-10-13T01:02:36.327Z,469.00
2022-10-13T01:03:06.357Z,468.00
2022-10-13T01:03:36.384Z,469.00
2022-10-13T01:04:06.410Z,468.00
2022-10-13T01:04:36.447Z,468.00
2022-10-13T01:05:06.563Z,468.00
2022-10-13T01:05:36.590Z,470.00
2022-10-13T01:06:06.614Z,468.00
2022-10-13T01:06:36.650Z,468.00
2022-10-13T01:07:06.718Z,468.00
2022-10-13T01:07:36.746Z,468.00
2022-10-13T01:08:06.774Z,468.00
2022-10-13T01:08:36.792Z,467.00
2022-10-13T01:09:06.822Z,467.00
2022-10-13T01:09:36.855Z,467.00
2022-10-13T01:10:06.876Z,468.00
2022-10-13T01:10:36.914Z,467.00
2022-10-13T01:11:06.944Z,467.00
2022-10-13T01:11:36.958Z,467.00
2022-10-13T01:12:06.988Z,467.00
2022-10-13T01:12:37.025Z,467.00
2022-10-13T01:13:07.150Z,467.00
2022-10-13T01:13:37.139Z,470.00
2022-10-13T01:14:07.181Z,471.00
2022-10-13T01:14:37.202Z,471.00
2022-10-13T01:15:07.233Z,470.00
2022-10-13T01:15:37.257Z,468.00
2022-10-13T01:16:07.289Z,469.00
2022-10-13T01:16:37.319Z,470.00
2022-10-13T01:17:07.346Z,471.00
2022-10-13T01:17:37.405Z,471.00
2022-10-13T01:18:07.401Z,470.00
2022-10-13T01:18:37.444Z,470.00
2022-10-13T01:19:07.461Z,471.00
2022-10-13T01:19:37.507Z,471.00
2022-10-13T01:20:07.598Z,470.00
2022-10-13T01:20:37.620Z,470.00
2022-10-13T01:21:07.689Z,470.00
2022-10-13T01:21:37.699Z,471.00
2022-10-13T01:22:07.739Z,471.00
2022-10-13T01:22:37.798Z,474.00
2022-10-13T01:23:07.803Z,472.00
2022-10-13T01:23:37.830Z,470.00
2022-10-13T01:24:07.859Z,472.00
2022-10-13T01:24:37.906Z,471.00
2022-10-13T01:25:07.926Z,469.00
2022-10-13T01:25:37.956Z,471.00
2022-10-13T01:26:08.038Z,469.00
2022-10-13T01:26:38.049Z,468.00
2022-10-13T01:27:08.101Z,469.00
2022-10-13T01:27:38.125Z,468.00
2022-10-13T01:28:08.161Z,466.00
2022-10-13T01:28:38.280Z,467.00
2022-10-13T01:29:08.210Z,465.00
2022-10-13T01:29:38.236Z,466.00
2022-10-13T01:30:08.275Z,465.00
2022-10-13T01:30:38.306Z,463.00
2022-10-13T01:31:08.324Z,464.00
2022-10-13T01:31:38.382Z,463.00
2022-10-13T01:32:08.387Z,461.00
2022-10-13T01:32:38.418Z,462.00
2022-10-13T01:33:08.453Z,461.00
2022-10-13T01:33:38.470Z,464.00
2022-10-13T01:34:08.503Z,465.00
2022-10-13T01:34:38.528Z,465.00
2022-10-13T01:35:08.685Z,463.00
2022-10-13T01:35:38.577Z,462.00
2022-10-13T01:36:08.615Z,462.00
2022-10-13T01:36:38.669Z,463.00
2022-10-13T01:37:08.723Z,464.00
2022-10-13T01:37:38.736Z,464.00
2022-10-13T01:38:08.762Z,462.00
2022-10-13T01:38:38.787Z,460.00
2022-10-13T01:39:08.816Z,462.00
2022-10-13T01:39:38.853Z,462.00
2022-10-13T01:40:08.979Z,461.00
2022-10-13T01:40:38.973Z,461.00
2022-10-13T01:41:10.787Z,461.00
2022-10-13T01:41:39.051Z,461.00
2022-10-13T01:42:11.079Z,460.00
2022-10-13T01:42:39.060Z,459.00
2022-10-13T01:43:09.174Z,457.00
2022-10-13T01:43:39.289Z,457.00
2022-10-13T01:44:09.416Z,456.00
2022-10-13T01:44:39.521Z,458.00
2022-10-13T01:45:09.623Z,459.00
2022-10-13T01:45:39.610Z,459.00
2022-10-13T01:46:09.725Z,458.00
2022-10-13T01:46:39.832Z,459.00
2022-10-13T01:47:09.950Z,461.00
2022-10-13T01:47:40.071Z,462.00
2022-10-13T01:48:10.174Z,463.00
2022-10-13T01:48:40.303Z,464.00
2022-10-13T01:49:10.405Z,465.00
2022-10-13T01:49:40.528Z,465.00
2022-10-13T01:50:10.611Z,467.00
2022-10-13T01:50:40.655Z,468.00
2022-10-13T01:51:10.678Z,468.00
2022-10-13T01:51:40.712Z,469.00
2022-10-13T01:52:10.731Z,470.00
2022-10-13T01:52:40.754Z,467.00
2022-10-13T01:53:10.779Z,469.00
2022-10-13T01:53:40.811Z,469.00
2022-10-13T01:54:10.837Z,468.00
2022-10-13T01:54:40.873Z,466.00
2022-10-13T01:55:10.896Z,466.00
2022-10-13T01:55:40.940Z,465.00
2022-10-13T01:56:10.957Z,463.00
2022-10-13T01:56:40.982Z,461.00
2022-10-13T01:57:11.040Z,460.00
2022-10-13T01:57:41.043Z,459.00
2022-10-13T01:58:11.075Z,459.00
2022-10-13T01:58:41.099Z,459.00
2022-10-13T01:59:11.159Z,460.00
2022-10-13T01:59:41.174Z,462.00
2022-10-13T02:00:11.210Z,464.00
2022-10-13T02:00:41.252Z,465.00
2022-10-13T02:01:11.323Z,465.00
2022-10-13T02:01:41.337Z,465.00
2022-10-13T02:02:11.366Z,462.00
2022-10-13T02:02:41.397Z,463.00
2022-10-13T02:03:11.420Z,461.00
2022-10-13T02:03:41.447Z,460.00
2022-10-13T02:04:11.475Z,461.00
2022-10-13T02:04:41.506Z,460.00
2022-10-13T02:05:11.540Z,461.00
2022-10-13T02:05:41.560Z,458.00
2022-10-13T02:06:11.648Z,458.00
2022-10-13T02:06:41.680Z,458.00
2022-10-13T02:07:11.683Z,459.00
2022-10-13T02:07:41.716Z,458.00
2022-10-13T02:08:11.740Z,459.00
2022-10-13T02:08:41.796Z,461.00
2022-10-13T02:09:11.794Z,462.00
2022-10-13T02:09:41.854Z,461.00
2022-10-13T02:10:11.879Z,461.00
2022-10-13T02:10:41.907Z,460.00
2022-10-13T02:11:11.933Z,460.00
2022-10-13T02:11:41.984Z,461.00
2022-10-13T02:12:11.995Z,460.00
2022-10-13T02:12:42.023Z,460.00
2022-10-13T02:13:12.065Z,458.00
2022-10-13T02:13:42.096Z,460.00
2022-10-13T02:14:12.129Z,460.00
2022-10-13T02:14:42.156Z,461.00
2022-10-13T02:15:12.234Z,463.00
2022-10-13T02:15:42.239Z,463.00
2022-10-13T02:16:12.263Z,461.00
2022-10-13T02:16:42.296Z,460.00
2022-10-13T02:17:12.315Z,459.00
2022-10-13T02:17:42.338Z,458.00
2022-10-13T02:18:12.367Z,456.00
2022-10-13T02:18:42.409Z,457.00
2022-10-13T02:19:12.430Z,456.00
2022-10-13T02:19:42.453Z,455.00
2022-10-13T02:20:12.518Z,456.00
2022-10-13T02:20:42.540Z,456.00
2022-10-13T02:21:12.568Z,456.00
2022-10-13T02:21:42.596Z,456.00
2022-10-13T02:22:12.622Z,456.00
2022-10-13T02:22:42.660Z,456.00
2022-10-13T02:23:12.687Z,456.00
2022-10-13T02:23:42.760Z,456.00
2022-10-13T02:24:12.769Z,457.00
2022-10-13T02:24:42.791Z,458.00
2022-10-13T02:25:12.853Z,458.00
2022-10-13T02:25:42.870Z,459.00
2022-10-13T02:26:12.899Z,458.00
2022-10-13T02:26:42.929Z,456.00
2022-10-13T02:27:12.977Z,455.00
2022-10-13T02:27:42.988Z,455.00
2022-10-13T02:28:13.095Z,455.00
2022-10-13T02:28:43.222Z,454.00
2022-10-13T02:29:13.169Z,452.00
2022-10-13T02:29:43.188Z,451.00
2022-10-13T02:30:13.259Z,452.00
2022-10-13T02:30:43.306Z,452.00
2022-10-13T02:31:13.308Z,455.00
2022-10-13T02:31:43.336Z,458.00
2022-10-13T02:32:13.386Z,458.00
2022-10-13T02:32:43.403Z,458.00
2022-10-13T02:33:13.438Z,458.00
2022-10-13T02:33:43.454Z,459.00
2022-10-13T02:34:13.478Z,459.00
2022-10-13T02:34:43.506Z,457.00
2022-10-13T02:35:13.551Z,458.00
2022-10-13T02:35:43.651Z,459.00
2022-10-13T02:36:13.652Z,458.00
2022-10-13T02:36:43.675Z,456.00
2022-10-13T02:37:13.703Z,457.00
2022-10-13T02:37:43.726Z,458.00
2022-10-13T02:38:13.757Z,460.00
2022-10-13T02:38:43.780Z,459.00
2022-10-13T02:39:13.808Z,460.00
2022-10-13T02:39:43.827Z,459.00
2022-10-13T02:40:13.964Z,459.00
2022-10-13T02:40:43.949Z,458.00
2022-10-13T02:41:14.058Z,458.00
2022-10-13T02:41:44.176Z,458.00
2022-10-13T02:42:14.176Z,458.00
2022-10-13T02:42:44.163Z,455.00
2022-10-13T02:43:14.278Z,454.00
2022-10-13T02:43:44.388Z,456.00
2022-10-13T02:44:14.510Z,456.00
2022-10-13T02:44:44.619Z,457.00
2022-10-13T02:45:14.782Z,457.00
2022-10-13T02:45:44.758Z,458.00
2022-10-13T02:46:14.772Z,458.00
2022-10-13T02:46:44.867Z,459.00
2022-10-13T02:47:14.977Z,457.00
2022-10-13T02:47:45.087Z,459.00
2022-10-13T02:48:15.208Z,459.00
2022-10-13T02:48:45.197Z,459.00
2022-10-13T02:49:15.313Z,459.00
2022-10-13T02:49:45.304Z,460.00
2022-10-13T02:50:15.354Z,460.00
2022-10-13T02:50:45.384Z,460.00
2022-10-13T02:51:15.429Z,461.00
2022-10-13T02:51:45.461Z,460.00
2022-10-13T02:52:15.473Z,459.00
2022-10-13T02:52:45.496Z,460.00
2022-10-13T02:53:15.547Z,460.00
2022-10-13T02:53:45.601Z,460.00
2022-10-13T02:54:15.624Z,460.00
2022-10-13T02:54:45.650Z,460.00
2022-10-13T02:55:15.768Z,461.00
2022-10-13T02:55:45.768Z,461.00
2022-10-13T02:56:15.846Z,461.00
2022-10-13T02:56:45.867Z,463.00
2022-10-13T02:57:15.890Z,461.00
2022-10-13T02:57:45.923Z,460.00
2022-10-13T02:58:15.966Z,457.00
2022-10-13T02:58:45.988Z,458.00
2022-10-13T02:59:16.015Z,458.00
2022-10-13T02:59:46.041Z,456.00
2022-10-13T03:00:16.172Z,457.00
2022-10-13T03:00:46.224Z,458.00
2022-10-13T03:01:16.244Z,457.00
2022-10-13T03:01:46.281Z,457.00
2022-10-13T03:02:16.300Z,456.00
2022-10-13T03:02:46.325Z,455.00
2022-10-13T03:03:16.349Z,455.00
2022-10-13T03:03:46.403Z,455.00
2022-10-13T03:04:16.421Z,456.00
2022-10-13T03:04:46.441Z,456.00
2022-10-13T03:05:16.542Z,458.00
2022-10-13T03:05:46.527Z,460.00
2022-10-13T03:06:16.559Z,460.00
2022-10-13T03:06:46.581Z,459.00
2022-10-13T03:07:16.629Z,459.00
2022-10-13T03:07:46.658Z,457.00
2022-10-13T03:08:16.677Z,455.00
2022-10-13T03:08:46.826Z,455.00
2022-10-13T03:09:16.717Z,454.00
2022-10-13T03:09:46.744Z,453.00
2022-10-13T03:10:16.781Z,451.00
2022-10-13T03:10:46.926Z,450.00
2022-10-13T03:11:16.925Z,449.00
2022-10-13T03:11:46.957Z,447.00
2022-10-13T03:12:17.409Z,451.00
2022-10-13T03:12:47.051Z,452.00
2022-10-13T03:13:17.075Z,452.00
2022-10-13T03:13:47.099Z,452.00
2022-10-13T03:14:17.134Z,452.00
2022-10-13T03:14:47.156Z,452.00
2022-10-13T03:15:17.181Z,452.00
2022-10-13T03:15:47.224Z,454.00
2022-10-13T03:16:17.247Z,455.00
2022-10-13T03:16:47.266Z,456.00
2022-10-13T03:17:17.314Z,457.00
2022-10-13T03:17:47.313Z,455.00
2022-10-13T03:18:17.347Z,453.00
2022-10-13T03:18:47.369Z,453.00
2022-10-13T03:19:17.426Z,453.00
2022-10-13T03:19:47.435Z,452.00
2022-10-13T03:20:17.471Z,455.00
2022-10-13T03:20:47.495Z,456.00
2022-10-13T03:21:17.529Z,454.00
2022-10-13T03:21:47.576Z,453.00
2022-10-13T03:22:18.052Z,453.00
2022-10-13T03:22:49.964Z,454.00
2022-10-13T03:23:17.651Z,454.00
2022-10-13T03:23:47.676Z,456.00
2022-10-13T03:24:17.699Z,458.00
2022-10-13T03:24:47.744Z,457.00
2022-10-13T03:25:17.780Z,457.00
2022-10-13T03:25:47.801Z,459.00
2022-10-13T03:26:17.884Z,457.00
2022-10-13T03:26:47.901Z,458.00
2022-10-13T03:27:17.935Z,457.00
2022-10-13T03:27:47.979Z,457.00
2022-10-13T03:28:18.038Z,456.00
2022-10-13T03:28:48.081Z,455.00
2022-10-13T03:29:18.082Z,455.00
2022-10-13T03:29:48.114Z,455.00
2022-10-13T03:30:18.137Z,454.00
2022-10-13T03:30:48.166Z,452.00
2022-10-13T03:31:18.188Z,454.00
2022-10-13T03:31:48.245Z,453.00
2022-10-13T03:32:18.709Z,452.00
2022-10-13T03:32:48.291Z,452.00
2022-10-13T03:33:18.316Z,451.00
2022-10-13T03:33:48.330Z,452.00
2022-10-13T03:34:18.357Z,451.00
2022-10-13T03:34:48.399Z,449.00
2022-10-13T03:35:18.429Z,451.00
2022-10-13T03:35:48.466Z,453.00
2022-10-13T03:36:18.478Z,454.00
2022-10-13T03:36:48.532Z,455.00
2022-10-13T03:37:18.548Z,455.00
2022-10-13T03:37:48.576Z,455.00
2022-10-13T03:38:18.607Z,455.00
2022-10-13T03:38:48.667Z,455.00
2022-10-13T03:39:18.675Z,456.00
2022-10-13T03:39:48.696Z,457.00
2022-10-13T03:40:18.703Z,458.00
2022-10-13T03:40:48.810Z,457.00
2022-10-13T03:41:18.925Z,458.00
2022-10-13T03:41:49.048Z,458.00
2022-10-13T03:42:19.253Z,457.00
2022-10-13T03:42:49.084Z,456.00
2022-10-13T03:43:19.245Z,456.00
2022-10-13T03:43:49.217Z,457.00
2022-10-13T03:44:19.334Z,456.00
2022-10-13T03:44:53.694Z,455.00
2022-10-13T03:45:19.471Z,456.00
2022-10-13T03:45:49.586Z,455.00
2022-10-13T03:46:19.703Z,454.00
2022-10-13T03:46:49.812Z,453.00
2022-10-13T03:47:19.925Z,453.00
2022-10-13T03:47:50.063Z,453.00
2022-10-13T03:48:20.157Z,450.00
2022-10-13T03:48:50.264Z,448.00
2022-10-13T03:49:20.376Z,450.00
2022-10-13T03:49:50.390Z,451.00
2022-10-13T03:50:20.424Z,449.00
2022-10-13T03:50:50.453Z,449.00
2022-10-13T03:51:20.475Z,448.00
2022-10-13T03:51:50.500Z,450.00
2022-10-13T03:52:20.945Z,452.00
2022-10-13T03:52:50.562Z,451.00
2022-10-13T03:53:59.579Z,456.00
2022-10-13T03:54:29.646Z,457.00
2022-10-13T03:54:59.721Z,455.00
2022-10-13T03:55:29.799Z,452.00
2022-10-13T03:55:59.865Z,452.00
2022-10-13T03:56:29.948Z,451.00
2022-10-13T03:57:00.020Z,452.00
2022-10-13T03:57:30.091Z,454.00
2022-10-13T03:58:00.169Z,454.00
2022-10-13T03:58:30.236Z,455.00
2022-10-13T03:59:00.345Z,456.00
2022-10-13T03:59:35.659Z,458.00
2022-10-13T04:00:00.533Z,459.00
2022-10-13T04:00:30.610Z,458.00
2022-10-13T04:01:00.683Z,458.00
2022-10-13T04:01:30.852Z,456.00
2022-10-13T04:02:00.846Z,459.00
2022-10-13T04:02:30.905Z,458.00
2022-10-13T04:03:01.009Z,456.00
2022-10-13T04:03:31.049Z,456.00
2022-10-13T04:04:01.161Z,455.00
2022-10-13T04:04:31.276Z,455.00
2022-10-13T04:05:01.390Z,455.00
2022-10-13T04:05:31.506Z,456.00
2022-10-13T04:06:01.621Z,459.00
2022-10-13T04:06:31.729Z,459.00
2022-10-13T04:07:01.848Z,461.00
2022-10-13T04:07:31.957Z,464.00
2022-10-13T04:08:02.068Z,464.00
2022-10-13T04:08:32.178Z,464.00
2022-10-13T04:09:02.288Z,464.00
2022-10-13T04:09:32.400Z,463.00
2022-10-13T04:10:02.516Z,465.00
2022-10-13T04:10:32.625Z,463.00
2022-10-13T04:11:02.746Z,465.00
2022-10-13T04:11:32.854Z,463.00
2022-10-13T04:12:02.963Z,463.00
2022-10-13T04:12:33.077Z,463.00
2022-10-13T04:13:03.193Z,463.00
2022-10-13T04:13:33.305Z,463.00
2022-10-13T04:14:03.425Z,464.00
2022-10-13T04:14:33.533Z,457.00
2022-10-13T04:15:03.664Z,480.00
2022-10-13T04:15:33.649Z,480.00
2022-10-13T04:16:03.762Z,476.00
2022-10-13T04:16:33.875Z,476.00
2022-10-13T04:17:03.986Z,495.00
2022-10-13T04:17:34.094Z,516.00
2022-10-13T04:18:04.231Z,515.00
2022-10-13T04:18:34.323Z,514.00
2022-10-13T04:19:04.437Z,510.00
2022-10-13T04:19:34.555Z,506.00
2022-10-13T04:20:04.668Z,503.00
2022-10-13T04:20:34.663Z,499.00
2022-10-13T04:21:04.767Z,495.00
2022-10-13T04:21:34.878Z,494.00
2022-10-13T04:22:04.994Z,493.00
2022-10-13T04:22:35.008Z,493.00
2022-10-13T04:23:05.119Z,493.00
2022-10-13T04:23:35.235Z,493.00
2022-10-13T04:24:05.350Z,493.00
2022-10-13T04:24:35.466Z,492.00
2022-10-13T04:25:05.580Z,492.00
2022-10-13T04:25:35.690Z,494.00
2022-10-13T04:26:05.804Z,494.00
2022-10-13T04:26:35.916Z,496.00
2022-10-13T04:27:06.037Z,495.00
2022-10-13T04:27:36.027Z,494.00
2022-10-13T04:28:06.141Z,498.00
2022-10-13T04:28:36.323Z,501.00
2022-10-13T04:29:06.283Z,502.00
2022-10-13T04:29:36.390Z,502.00
2022-10-13T04:30:06.511Z,503.00
2022-10-13T04:30:36.622Z,504.00
2022-10-13T04:31:06.738Z,504.00
2022-10-13T04:31:36.846Z,504.00
2022-10-13T04:32:06.960Z,504.00
2022-10-13T04:32:37.077Z,507.00
2022-10-13T04:33:07.208Z,505.00
2022-10-13T04:33:37.297Z,504.00
2022-10-13T04:34:07.413Z,508.00
2022-10-13T04:34:37.527Z,513.00
2022-10-13T04:35:07.645Z,511.00
2022-10-13T04:35:37.754Z,509.00
2022-10-13T04:36:07.785Z,507.00
2022-10-13T04:36:37.876Z,504.00
2022-10-13T04:37:07.989Z,506.00
2022-10-13T04:37:42.772Z,509.00
2022-10-13T04:38:08.115Z,510.00
2022-10-13T04:38:38.235Z,512.00
2022-10-13T04:39:08.349Z,512.00
2022-10-13T04:39:38.457Z,513.00
2022-10-13T04:40:08.593Z,516.00
2022-10-13T04:40:38.580Z,516.00
2022-10-13T04:41:08.701Z,517.00
2022-10-13T04:41:38.687Z,515.00
2022-10-13T04:42:08.798Z,514.00
2022-10-13T04:42:38.909Z,514.00
2022-10-13T04:43:09.026Z,519.00
2022-10-13T04:43:39.138Z,519.00
2022-10-13T04:44:09.251Z,518.00
2022-10-13T04:44:39.362Z,517.00
2022-10-13T04:45:09.482Z,517.00
2022-10-13T04:45:39.471Z,518.00
2022-10-13T04:46:09.582Z,518.00
2022-10-13T04:46:39.694Z,526.00
2022-10-13T04:47:09.808Z,523.00
2022-10-13T04:47:39.921Z,522.00
2022-10-13T04:48:10.032Z,522.00
2022-10-13T04:48:40.162Z,524.00
2022-10-13T04:49:10.250Z,526.00
2022-10-13T04:49:40.365Z,528.00
2022-10-13T04:50:10.501Z,534.00
2022-10-13T04:50:40.485Z,533.00
2022-10-13T04:51:10.599Z,535.00
2022-10-13T04:51:40.708Z,534.00
2022-10-13T04:52:10.824Z,534.00
2022-10-13T04:52:40.933Z,534.00
2022-10-13T04:53:14.202Z,536.00
2022-10-13T04:53:41.165Z,535.00
2022-10-13T04:54:11.233Z,534.00
2022-10-13T04:54:41.313Z,537.00
2022-10-13T04:55:11.400Z,537.00
2022-10-13T04:55:41.473Z,537.00
2022-10-13T04:56:11.553Z,534.00
2022-10-13T04:56:41.618Z,535.00
2022-10-13T04:57:11.694Z,533.00
2022-10-13T04:57:41.764Z,531.00
2022-10-13T04:58:11.845Z,532.00
2022-10-13T04:58:41.922Z,532.00
2022-10-13T04:59:11.993Z,531.00
2022-10-13T04:59:42.066Z,532.00
2022-10-13T05:00:12.354Z,530.00
2022-10-13T05:00:42.201Z,529.00
2022-10-13T05:01:12.344Z,528.00
2022-10-13T05:01:42.288Z,528.00
2022-10-13T05:02:12.364Z,528.00
2022-10-13T05:02:42.435Z,526.00
2022-10-13T05:03:12.510Z,525.00
2022-10-13T05:03:42.627Z,526.00
2022-10-13T05:04:12.715Z,524.00
2022-10-13T05:04:42.824Z,525.00
2022-10-13T05:05:12.973Z,526.00
2022-10-13T05:05:42.957Z,525.00
2022-10-13T05:06:13.072Z,524.00
2022-10-13T05:07:05.350Z,523.00
2022-10-13T05:07:17.933Z,525.00
2022-10-13T05:07:43.208Z,525.00
2022-10-13T05:08:13.324Z,524.00
2022-10-13T05:08:43.437Z,525.00
2022-10-13T05:09:13.544Z,523.00
2022-10-13T05:09:43.661Z,523.00
2022-10-13T05:10:13.811Z,523.00
2022-10-13T05:10:43.795Z,523.00
2022-10-13T05:11:13.925Z,523.00
2022-10-13T05:11:44.018Z,522.00
2022-10-13T05:12:14.133Z,521.00
2022-10-13T05:12:44.247Z,521.00
2022-10-13T05:13:14.357Z,520.00
2022-10-13T05:13:44.472Z,520.00
2022-10-13T05:14:14.587Z,519.00
2022-10-13T05:14:44.704Z,521.00
2022-10-13T05:15:14.730Z,523.00
2022-10-13T05:15:44.713Z,523.00
2022-10-13T05:16:14.824Z,523.00
2022-10-13T05:16:44.955Z,523.00
2022-10-13T05:17:15.054Z,522.00
2022-10-13T05:17:45.168Z,520.00
2022-10-13T05:18:15.282Z,521.00
2022-10-13T05:18:45.416Z,522.00
2022-10-13T05:19:15.510Z,522.00
2022-10-13T05:19:45.622Z,522.00
2022-10-13T05:20:15.818Z,522.00
2022-10-13T05:20:45.779Z,521.00
2022-10-13T05:21:15.889Z,520.00
2022-10-13T05:21:45.882Z,521.00
2022-10-13T05:22:15.992Z,520.00
2022-10-13T05:22:46.109Z,521.00
2022-10-13T05:23:16.222Z,522.00
2022-10-13T05:23:46.332Z,523.00
2022-10-13T05:24:16.451Z,523.00
2022-10-13T05:24:46.557Z,523.00
2022-10-13T05:25:16.716Z,522.00
2022-10-13T05:25:46.705Z,523.00
2022-10-13T05:26:16.816Z,524.00
2022-10-13T05:26:46.930Z,522.00
2022-10-13T05:27:17.047Z,520.00
2022-10-13T05:27:47.164Z,520.00
2022-10-13T05:28:17.315Z,519.00
2022-10-13T05:28:47.429Z,520.00
2022-10-13T05:29:17.355Z,519.00
2022-10-13T05:29:47.474Z,516.00
2022-10-13T05:30:17.582Z,517.00
2022-10-13T05:30:47.700Z,516.00
2022-10-13T05:31:17.814Z,515.00
2022-10-13T05:31:47.925Z,518.00
2022-10-13T05:32:18.518Z,517.00
2022-10-13T05:32:51.583Z,517.00
2022-10-13T05:33:18.159Z,516.00
2022-10-13T05:33:48.303Z,516.00
2022-10-13T05:34:18.406Z,515.00
2022-10-13T05:34:48.431Z,514.00
2022-10-13T05:35:18.588Z,511.00
2022-10-13T05:35:48.593Z,508.00
2022-10-13T05:36:18.657Z,505.00
2022-10-13T05:36:48.672Z,505.00
2022-10-13T05:37:18.791Z,502.00
2022-10-13T05:37:48.901Z,502.00
2022-10-13T05:38:23.780Z,505.00
2022-10-13T05:38:49.024Z,504.00
2022-10-13T05:39:19.133Z,504.00
2022-10-13T05:39:49.250Z,504.00
2022-10-13T05:40:19.379Z,503.00
2022-10-13T05:40:49.360Z,504.00
2022-10-13T05:41:19.474Z,504.00
2022-10-13T05:41:49.469Z,503.00
2022-10-13T05:42:19.844Z,500.00
2022-10-13T05:42:49.584Z,499.00
2022-10-13T05:43:19.698Z,498.00
2022-10-13T05:43:49.810Z,498.00
2022-10-13T05:44:19.921Z,497.00
2022-10-13T05:44:50.034Z,499.00
2022-10-13T05:45:20.172Z,499.00
2022-10-13T05:45:50.153Z,496.00
2022-10-13T05:46:20.151Z,495.00
2022-10-13T05:46:50.260Z,493.00
2022-10-13T05:47:20.258Z,493.00
2022-10-13T05:47:50.371Z,492.00
2022-10-13T05:48:20.480Z,491.00
2022-10-13T05:48:50.597Z,490.00
2022-10-13T05:49:20.857Z,490.00
2022-10-13T05:49:50.804Z,489.00
2022-10-13T05:50:20.921Z,489.00
2022-10-13T05:50:50.943Z,488.00
2022-10-13T05:51:20.938Z,486.00
2022-10-13T05:51:51.050Z,485.00
2022-10-13T05:52:21.563Z,484.00
2022-10-13T05:52:51.201Z,483.00
2022-10-13T05:53:21.311Z,483.00
2022-10-13T05:53:56.791Z,482.00
2022-10-13T05:54:21.508Z,482.00
2022-10-13T05:54:51.581Z,481.00
2022-10-13T05:55:21.668Z,481.00
2022-10-13T05:55:51.738Z,480.00
2022-10-13T05:56:21.813Z,479.00
2022-10-13T05:56:51.888Z,478.00
2022-10-13T05:57:21.963Z,478.00
2022-10-13T05:57:52.036Z,475.00
2022-10-13T05:58:22.106Z,476.00
2022-10-13T05:58:52.178Z,476.00
2022-10-13T05:59:26.727Z,476.00
2022-10-13T05:59:52.317Z,476.00
2022-10-13T06:00:22.404Z,475.00
2022-10-13T06:00:52.491Z,472.00
2022-10-13T06:01:22.686Z,478.00
2022-10-13T06:01:52.695Z,485.00
2022-10-13T06:02:23.161Z,493.00
2022-10-13T06:02:52.842Z,489.00
2022-10-13T06:03:22.918Z,492.00
2022-10-13T06:03:53.022Z,497.00
2022-10-13T06:04:23.163Z,497.00
2022-10-13T06:04:53.260Z,497.00
2022-10-13T06:05:23.374Z,498.00
2022-10-13T06:05:53.480Z,496.00
2022-10-13T06:06:26.767Z,496.00
2022-10-13T06:06:53.600Z,496.00
2022-10-13T06:07:23.714Z,495.00
2022-10-13T06:07:53.832Z,495.00
2022-10-13T06:08:23.827Z,495.00
2022-10-13T06:08:53.935Z,495.00
2022-10-13T06:09:24.058Z,493.00
2022-10-13T06:09:54.160Z,491.00
2022-10-13T06:10:24.270Z,490.00
2022-10-13T06:10:54.383Z,491.00
2022-10-13T06:11:24.492Z,491.00
2022-10-13T06:11:54.615Z,491.00
2022-10-13T06:12:24.722Z,488.00
2022-10-13T06:12:54.828Z,490.00
2022-10-13T06:13:24.942Z,490.00
2022-10-13T06:13:55.056Z,490.00
2022-10-13T06:14:25.160Z,490.00
2022-10-13T06:14:55.286Z,492.00
2022-10-13T06:15:28.142Z,490.00